Dornsife, PA (17823)

05:58 AM EDT del 29 Agosto 2014 (GMT -0400)
TONY | Change Station
CLOSE
Current Station
Stazione meteo personale
Location: Trevorton, PA
Altitudine: 820 ft
Stazioni meteo nelle vicinanze

Alt. 820 ft 40.78 °N, 76.68 °W | Updated 12 minutes ago

Sereno
Sereno
47.9 °F
Sembra 48 °F
N
0.0
Vento Variabile Vento da Est
Gusts 0.0 mph

Oggi
Massima -- | Minima -- °F
--% Possibilità di precip.
Ieri
Massima -- | Minima -- °F
Precip. -- in
6:31 AM 7:44 PM
Luna crescente, 13% visible
Pressione 30.19 in
Visibilità 10.0 miglia
Nuvole Sereno
Raffreddamento del vento 48 °F
Punto di rugiada 47 °F
Umidità 96%
Piovosità 0.00 in
Spessore del manto nevoso Non disponibile.
Raggi UV 0 fuori da 12
Polline 10.40 fuori da 12
Qualità dell'aria Non disponibile.
Flu Activity Non disponibile.
METAR KSEG 290953Z AUTO 00000KT 10SM CLR 09/08 A3019 RMK AO2 SLP221 T00940083

More Conditions Fewer Conditions

Pressione 30.19 in
Visibilità 10.0 miglia
Nuvole Sereno
Raffreddamento del vento 48 °F
Punto di rugiada 47 °F
Umidità 96%
Piovosità 0.00 in
Spessore del manto nevoso Non disponibile.
Raggi UV 0 fuori da 12
Polline 10.40 fuori da 12
Qualità dell'aria Non disponibile.
Flu Activity Non disponibile.
METAR KSEG 290953Z AUTO 00000KT 10SM CLR 09/08 A3019 RMK AO2 SLP221 T00940083

More Conditions Fewer Conditions

10-Day Weather Forecast

Almanac

Astronomia

Aug. 29, 2014 Alba Tramonto
Ora attuale 06:31 EDT 19:44 EDT
Crepuscolo civile 06:02 EDT 20:12 EDT
Crepuscolo nautico 05:28 EDT 20:46 EDT
Crepuscolo astronomico 04:53 EDT 21:21 EDT
Luna 10:20 EDT 21:38 EDT
Estensione della luce visibile 14h 09m
Lunghezza del giorno
13h 13m
Tomorrow will be 2m 34s shorter.
Luna crescente, 13% of the Moon is Illuminated
Oggi
Luna crescente
Set 2
Primo quarto
Set 8
Luna piena
Set 15
Ultimo quarto
Set 24
Nuovo

Gli estremi di oggi

State Highs State Lows

Community

WunderPhotos

Upload Photos

1,748,207 foto caricate!

Nearby

Profondità neve

Stazione Profondità Altitudine
Non sono state evidenziate nuove nevicate

Attività sismica

Città  Distanza Mag. Data & Ora
Non sono state riportate attività sismiche nelle vicinanze.
Minimo Magnitudo Mostrato è 2.5.

Temperature delle acque costiere

Località Temperatura
Nessun dato dalle stazioni

Stazioni meteo nelle vicinanze